Time;durP1;ratioP1;P1;durP2;ratioP2;P2;SDS_P1;SDS_P2;PMS_P1;PMS_P2;Temp;Humidity;BMP_temperature;BMP_pressure;BME280_temperature;BME280_humidity;BME280_pressure;Samples;Min_cycle;Max_cycle;Signal;HPM_P1;HPM_P2
2023/01/07 00:01:21;;;;;;;12.33;7.53;;;;;;;-145.18;100.00;46687.75;6153689;23;20427;-75
2023/01/07 00:03:47;;;;;;;10.93;6.73;;;;;;;-145.18;100.00;46689.69;6153355;23;20056;-75
2023/01/07 00:06:15;;;;;;;11.50;6.20;;;;;;;-145.18;100.00;46685.78;6153623;23;20399;-75
2023/01/07 00:08:43;;;;;;;10.27;6.10;;;;;;;-145.18;100.00;46687.75;6153626;23;20037;-75
2023/01/07 00:11:12;;;;;;;9.27;6.23;;;;;;;-145.18;100.00;46693.59;6153481;23;20041;-75
2023/01/07 00:13:37;;;;;;;10.30;6.00;;;;;;;-145.18;100.00;46697.50;6153290;23;20005;-75
2023/01/07 00:16:07;;;;;;;10.07;6.50;;;;;;;-145.18;100.00;46689.69;6153327;23;20017;-75
2023/01/07 00:18:33;;;;;;;11.53;6.73;;;;;;;-145.18;100.00;46689.69;6153115;23;20010;-75
2023/01/07 00:21:00;;;;;;;10.93;6.53;;;;;;;-145.18;100.00;46697.50;6153612;23;20080;-75
2023/01/07 00:23:27;;;;;;;11.80;6.47;;;;;;;-145.18;100.00;46699.47;6153547;23;20069;-75
2023/01/07 00:25:59;;;;;;;10.43;6.90;;;;;;;-145.18;100.00;46693.59;6152956;23;20009;-75
2023/01/07 00:28:25;;;;;;;8.97;7.70;;;;;;;-145.18;100.00;46703.38;6153092;23;20001;-75
2023/01/07 00:30:50;;;;;;;10.47;7.27;;;;;;;-145.18;100.00;46693.59;6153222;23;20016;-75
2023/01/07 00:33:17;;;;;;;12.63;7.93;;;;;;;-145.18;100.00;46697.50;6153505;23;20481;-75
2023/01/07 00:35:43;;;;;;;11.83;7.67;;;;;;;-145.18;100.00;46695.56;6153122;23;20009;-75
2023/01/07 00:38:09;;;;;;;13.80;8.27;;;;;;;-145.18;100.00;46695.56;6153063;23;20461;-75
2023/01/07 00:40:35;;;;;;;12.10;8.27;;;;;;;-145.18;100.00;46699.47;6153175;23;20005;-75
2023/01/07 00:43:00;;;;;;;11.97;7.73;;;;;;;-145.18;100.00;46703.38;6153218;23;20063;-76
2023/01/07 00:45:31;;;;;;;11.67;7.93;;;;;;;-145.18;100.00;46699.47;6153520;23;20093;-75
2023/01/07 00:47:57;;;;;;;12.83;8.10;;;;;;;-145.18;100.00;46705.31;6152953;23;20001;-75
2023/01/07 00:50:25;;;;;;;10.77;7.77;;;;;;;-145.18;100.00;46707.28;6153493;23;20501;-76
2023/01/07 00:52:51;;;;;;;13.37;8.47;;;;;;;-145.18;100.00;46695.56;6153055;23;20453;-76
2023/01/07 00:55:16;;;;;;;12.93;8.10;;;;;;;-145.18;100.00;46701.41;6153505;23;19998;-76
2023/01/07 00:57:43;;;;;;;12.00;8.73;;;;;;;-145.18;100.00;46691.66;6152876;23;20388;-76
2023/01/07 01:00:11;;;;;;;15.10;8.47;;;;;;;-145.18;100.00;46693.59;6152862;23;20013;-75
2023/01/07 01:02:37;;;;;;;12.83;7.87;;;;;;;-145.18;100.00;46695.56;6152952;23;20002;-76
2023/01/07 01:05:04;;;;;;;11.33;8.37;;;;;;;-145.18;100.00;46695.56;6151123;23;20017;-75
2023/01/07 01:07:29;;;;;;;12.07;8.63;;;;;;;-145.18;100.00;46693.59;6151624;23;20048;-76
2023/01/07 01:09:55;;;;;;;11.80;7.97;;;;;;;-145.18;100.00;46699.47;6152854;23;20471;-75
2023/01/07 01:12:20;;;;;;;12.47;8.03;;;;;;;-145.18;100.00;46689.69;6152727;23;20088;-75
2023/01/07 01:14:46;;;;;;;14.53;8.27;;;;;;;-145.18;100.00;46705.31;6152983;23;20009;-75
2023/01/07 01:17:11;;;;;;;17.23;8.97;;;;;;;-145.18;100.00;46689.69;6152646;23;20015;-75
2023/01/07 01:19:36;;;;;;;14.27;8.77;;;;;;;-145.18;100.00;46701.41;6152953;23;20013;-75
2023/01/07 01:22:02;;;;;;;15.70;9.77;;;;;;;-145.18;100.00;46711.19;6153033;23;20010;-75
2023/01/07 01:24:28;;;;;;;14.63;8.00;;;;;;;-145.18;100.00;46701.41;6152773;23;20057;-75
2023/01/07 01:26:53;;;;;;;13.07;8.80;;;;;;;-145.18;100.00;46701.41;6152425;23;20001;-75
2023/01/07 01:29:19;;;;;;;13.83;9.13;;;;;;;-145.18;100.00;46691.66;6152977;23;20431;-75
2023/01/07 01:31:44;;;;;;;16.20;9.97;;;;;;;-145.18;100.00;46707.28;6151088;23;20093;-75
2023/01/07 01:34:09;;;;;;;11.90;8.73;;;;;;;-145.18;100.00;46697.50;6151091;23;20041;-75
2023/01/07 01:36:35;;;;;;;16.20;8.70;;;;;;;-145.18;100.00;46701.41;6152293;23;20020;-75
2023/01/07 01:39:01;;;;;;;15.97;8.63;;;;;;;-145.18;100.00;46691.66;6152890;23;20010;-75
2023/01/07 01:41:26;;;;;;;12.97;8.83;;;;;;;-145.18;100.00;46701.41;6152190;23;20383;-75
2023/01/07 01:43:52;;;;;;;18.60;8.73;;;;;;;-145.18;100.00;46693.59;6152588;23;20060;-75
2023/01/07 01:46:38;;;;;;;16.93;8.60;;;;;;;-145.18;100.00;46705.31;6152579;23;20013;-75
2023/01/07 01:49:15;;;;;;;20.27;9.23;;;;;;;-145.18;100.00;46699.47;6152469;23;20001;-75
2023/01/07 01:51:45;;;;;;;17.60;8.37;;;;;;;-145.18;100.00;46699.47;6152596;23;20005;-75
2023/01/07 01:54:14;;;;;;;16.13;8.27;;;;;;;-145.18;100.00;46713.13;6152474;23;20006;-75
2023/01/07 01:56:42;;;;;;;18.60;9.10;;;;;;;-145.18;100.00;46707.28;6150499;23;20014;-75
2023/01/07 01:59:13;;;;;;;11.30;8.10;;;;;;;-145.18;100.00;46703.38;6152570;23;20013;-75
2023/01/07 02:01:38;;;;;;;16.87;7.60;;;;;;;-145.18;100.00;46715.09;6151990;23;20021;-75
2023/01/07 02:04:12;;;;;;;15.00;7.37;;;;;;;-145.18;100.00;46695.56;6152467;23;20400;-75
2023/01/07 02:06:44;;;;;;;16.77;7.93;;;;;;;-145.18;100.00;46705.31;6152144;23;20001;-75
2023/01/07 02:09:13;;;;;;;23.93;8.23;;;;;;;-145.18;100.00;46711.19;6152227;23;20005;-75
2023/01/07 02:11:56;;;;;;;18.83;8.03;;;;;;;-145.18;100.00;46715.09;6150469;23;20084;-75
2023/01/07 02:14:39;;;;;;;19.13;8.20;;;;;;;-145.18;100.00;46713.13;6152110;23;20005;-75
2023/01/07 02:17:20;;;;;;;15.83;7.50;;;;;;;-145.18;100.00;46703.38;6154332;23;20068;-75
2023/01/07 02:20:11;;;;;;;19.40;9.17;;;;;;;-145.18;100.00;46701.41;6181540;23;20600;-75
2023/01/07 02:23:22;;;;;;;16.30;7.33;;;;;;;-145.18;100.00;46697.50;6181758;23;20493;-75
2023/01/07 02:26:06;;;;;;;21.03;8.17;;;;;;;-145.18;100.00;46703.38;6155170;23;20425;-75
2023/01/07 02:29:09;;;;;;;17.77;7.80;;;;;;;-145.18;100.00;46701.41;6181485;23;20059;-75
2023/01/07 02:31:59;;;;;;;15.43;7.33;;;;;;;-145.18;100.00;46703.38;6181630;23;20005;-75
2023/01/07 02:34:43;;;;;;;14.03;7.33;;;;;;;-145.18;100.00;46699.47;6181979;23;20005;-75
2023/01/07 02:37:26;;;;;;;16.47;7.53;;;;;;;-145.18;100.00;46695.56;6182085;23;20005;-75
2023/01/07 02:40:19;;;;;;;16.40;7.87;;;;;;;-145.18;100.00;46701.41;6181530;23;20012;-75
2023/01/07 02:42:51;;;;;;;19.20;8.17;;;;;;;-145.18;100.00;46699.47;6181384;23;20456;-76
2023/01/07 02:45:30;;;;;;;19.83;7.73;;;;;;;-145.18;100.00;46701.41;6181747;23;20422;-75
2023/01/07 02:48:00;;;;;;;18.20;7.57;;;;;;;-145.18;100.00;46703.38;6181711;23;20001;-76
2023/01/07 02:50:25;;;;;;;16.33;8.10;;;;;;;-145.18;100.00;46699.47;6181551;23;20028;-76
2023/01/07 02:52:51;;;;;;;16.77;7.40;;;;;;;-145.18;100.00;46695.56;6181414;23;20044;-76
2023/01/07 02:55:49;;;;;;;14.87;6.87;;;;;;;-145.18;100.00;46697.50;6181974;23;20005;-76
2023/01/07 02:58:33;;;;;;;14.30;7.50;;;;;;;-145.18;100.00;46703.38;6181503;23;20017;-77
2023/01/07 03:03:50;;;;;;;15.55;7.68;;;;;;;-145.18;100.00;46693.59;6144344;23;20357;-77
2023/01/07 03:06:19;;;;;;;16.77;7.43;;;;;;;-145.18;100.00;46703.38;6151859;23;20013;-76
2023/01/07 03:09:10;;;;;;;15.43;7.63;;;;;;;-145.18;100.00;46701.41;6125189;23;20331;-77
2023/01/07 03:11:47;;;;;;;14.23;7.23;;;;;;;-145.18;100.00;46705.31;6126324;23;20609;-77
2023/01/07 03:14:21;;;;;;;17.77;7.47;;;;;;;-145.18;100.00;46693.59;6152171;23;20001;-76
2023/01/07 03:16:54;;;;;;;13.37;7.43;;;;;;;-145.18;100.00;46691.66;6151850;23;20498;-76
2023/01/07 03:19:25;;;;;;;14.87;6.60;;;;;;;-145.18;100.00;46699.47;6152120;23;20427;-77
2023/01/07 03:21:53;;;;;;;15.37;6.97;;;;;;;-145.18;100.00;46697.50;6151991;23;20290;-76
2023/01/07 03:24:21;;;;;;;14.70;7.23;;;;;;;-145.18;100.00;46699.47;6152286;23;20005;-77
2023/01/07 03:26:50;;;;;;;13.90;7.30;;;;;;;-145.18;100.00;46695.56;6152106;23;20009;-76
2023/01/07 03:29:17;;;;;;;15.50;7.57;;;;;;;-145.18;100.00;46695.56;6152241;23;20227;-77
2023/01/07 03:32:12;;;;;;;15.17;7.77;;;;;;;-145.18;100.00;46705.31;6152022;23;20423;-76
2023/01/07 03:34:38;;;;;;;15.57;7.93;;;;;;;-145.18;100.00;46695.56;6143570;23;20032;-77
2023/01/07 03:37:10;;;;;;;13.47;7.50;;;;;;;-145.18;100.00;46695.56;6152290;23;20330;-76
2023/01/07 03:39:38;;;;;;;14.13;7.70;;;;;;;-145.18;100.00;46699.47;6151794;23;20052;-77
2023/01/07 03:44:52;;;;;;;19.60;8.37;;;;;;;-145.18;100.00;46709.22;6152311;23;20238;-76
2023/01/07 03:47:18;;;;;;;14.23;7.90;;;;;;;-145.18;100.00;46689.69;6152141;23;20534;-76
2023/01/07 03:49:43;;;;;;;12.20;7.70;;;;;;;-145.18;100.00;46695.56;6152399;23;20013;-76
2023/01/07 03:52:08;;;;;;;15.27;7.97;;;;;;;-145.18;100.00;46705.31;6151746;23;20040;-76
2023/01/07 03:54:34;;;;;;;15.87;8.07;;;;;;;-145.18;100.00;46705.31;6126387;23;20010;-76
2023/01/07 03:57:00;;;;;;;14.23;7.37;;;;;;;-145.18;100.00;46697.50;6151445;23;20072;-76
2023/01/07 03:59:25;;;;;;;16.20;8.20;;;;;;;-145.18;100.00;46709.22;6152293;23;20009;-76
2023/01/07 04:01:50;;;;;;;13.00;8.27;;;;;;;-145.18;100.00;46691.66;6151868;23;20084;-76
2023/01/07 04:04:16;;;;;;;15.67;7.90;;;;;;;-145.18;100.00;46703.38;6152411;23;20013;-76
2023/01/07 04:06:41;;;;;;;16.17;7.73;;;;;;;-145.18;100.00;46699.47;6154383;23;20435;-76
2023/01/07 04:09:06;;;;;;;17.23;7.77;;;;;;;-145.18;100.00;46693.59;6153301;23;20018;-76
2023/01/07 04:11:32;;;;;;;12.60;7.80;;;;;;;-145.18;100.00;46701.41;6154278;23;20024;-76
2023/01/07 04:13:59;;;;;;;15.40;7.57;;;;;;;-145.18;100.00;46705.31;6153426;23;20347;-76
2023/01/07 04:16:25;;;;;;;16.07;7.30;;;;;;;-145.18;100.00;46693.59;6153599;23;20335;-76
2023/01/07 04:18:51;;;;;;;10.80;7.10;;;;;;;-145.18;100.00;46705.31;6153464;23;20566;-76
2023/01/07 04:21:16;;;;;;;11.50;6.80;;;;;;;-145.18;100.00;46687.75;6154008;23;20016;-76
2023/01/07 04:23:41;;;;;;;11.80;7.47;;;;;;;-145.18;100.00;46693.59;6153862;23;20384;-76
2023/01/07 04:26:07;;;;;;;13.70;7.97;;;;;;;-145.18;100.00;46695.56;6153683;23;20072;-76
2023/01/07 04:28:32;;;;;;;11.87;6.90;;;;;;;-145.18;100.00;46711.19;6153430;23;20013;-76
2023/01/07 04:30:58;;;;;;;14.00;7.17;;;;;;;-145.18;100.00;46693.59;6153844;23;20048;-76
2023/01/07 04:33:23;;;;;;;12.50;7.10;;;;;;;-145.18;100.00;46695.56;6127523;23;20383;-77
2023/01/07 04:35:49;;;;;;;11.20;6.07;;;;;;;-145.18;100.00;46691.66;6153352;23;20010;-76
2023/01/07 04:38:14;;;;;;;12.87;6.57;;;;;;;-145.18;100.00;46695.56;6127654;23;20422;-76
2023/01/07 04:40:40;;;;;;;14.30;6.50;;;;;;;-145.18;100.00;46693.59;6153647;23;20431;-77
2023/01/07 04:43:05;;;;;;;11.93;6.13;;;;;;;-145.18;100.00;46693.59;6153221;23;20002;-76
2023/01/07 04:45:31;;;;;;;11.67;6.60;;;;;;;-145.18;100.00;46691.66;6153855;23;20724;-77
2023/01/07 04:47:56;;;;;;;10.30;6.17;;;;;;;-145.18;100.00;46691.66;6153134;23;20013;-76
2023/01/07 04:50:23;;;;;;;10.47;6.73;;;;;;;-145.18;100.00;46693.59;6153561;23;20081;-76
2023/01/07 04:52:48;;;;;;;12.30;5.53;;;;;;;-145.18;100.00;46695.56;6152959;23;20034;-76
2023/01/07 04:55:14;;;;;;;9.60;5.50;;;;;;;-145.18;100.00;46693.59;6153772;23;20035;-76
2023/01/07 04:57:39;;;;;;;9.43;5.33;;;;;;;-145.18;100.00;46695.56;6153144;23;20334;-76
2023/01/07 05:00:06;;;;;;;12.67;6.27;;;;;;;-145.18;100.00;46699.47;6153297;23;20133;-76
2023/01/07 05:02:32;;;;;;;13.80;6.47;;;;;;;-145.18;100.00;46693.59;6126721;23;20439;-77
2023/01/07 05:04:57;;;;;;;9.27;5.70;;;;;;;-145.18;100.00;46699.47;6153399;23;20052;-76
2023/01/07 05:07:23;;;;;;;13.17;5.87;;;;;;;-145.18;100.00;46703.38;6153399;23;20085;-76
2023/01/07 05:09:48;;;;;;;11.43;5.80;;;;;;;-145.18;100.00;46701.41;6153034;23;20017;-76
2023/01/07 05:12:13;;;;;;;12.40;5.97;;;;;;;-145.18;100.00;46691.66;6153147;23;20080;-76
2023/01/07 05:14:39;;;;;;;9.47;5.40;;;;;;;-145.18;100.00;46701.41;6153106;23;20061;-76
2023/01/07 05:17:04;;;;;;;11.00;5.83;;;;;;;-145.18;100.00;46697.50;6152732;23;20017;-76
2023/01/07 05:19:29;;;;;;;11.10;5.40;;;;;;;-145.18;100.00;46699.47;6152856;23;20331;-76
2023/01/07 05:21:55;;;;;;;9.23;5.00;;;;;;;-145.18;100.00;46703.38;6153228;23;20006;-77
2023/01/07 05:24:20;;;;;;;9.67;4.70;;;;;;;-145.18;100.00;46697.50;6150974;23;20393;-76
2023/01/07 05:26:46;;;;;;;9.30;5.30;;;;;;;-145.18;100.00;46705.31;6152015;23;20462;-77
2023/01/07 05:29:11;;;;;;;8.13;4.93;;;;;;;-145.18;100.00;46703.38;6152663;23;20010;-76
2023/01/07 05:31:37;;;;;;;7.23;4.60;;;;;;;-145.18;100.00;46695.56;6153075;23;20554;-76
2023/01/07 05:34:02;;;;;;;11.43;4.53;;;;;;;-145.18;100.00;46699.47;6151842;23;20614;-77
2023/01/07 05:36:27;;;;;;;8.93;5.03;;;;;;;-145.18;100.00;46705.31;6152515;23;20092;-76
2023/01/07 05:38:53;;;;;;;8.00;4.30;;;;;;;-145.18;100.00;46703.38;6152047;23;20006;-76
2023/01/07 05:41:18;;;;;;;10.20;4.70;;;;;;;-145.18;100.00;46709.22;6153037;23;20001;-77
2023/01/07 05:43:44;;;;;;;10.63;4.63;;;;;;;-145.18;100.00;46705.31;6152325;23;20013;-76
2023/01/07 05:46:09;;;;;;;8.50;4.57;;;;;;;-145.18;100.00;46711.19;6149970;23;20354;-76
2023/01/07 05:48:34;;;;;;;8.57;4.47;;;;;;;-145.18;100.00;46707.28;6152246;23;20010;-76
2023/01/07 05:51:00;;;;;;;10.93;4.00;;;;;;;-145.18;100.00;46695.56;6126307;23;20517;-76
2023/01/07 05:53:25;;;;;;;8.17;4.03;;;;;;;-145.18;100.00;46703.38;6152143;23;20015;-76
2023/01/07 05:55:58;;;;;;;7.40;3.77;;;;;;;-145.18;100.00;46707.28;6151938;23;20014;-75
2023/01/07 05:58:23;;;;;;;12.23;4.50;;;;;;;-145.18;100.00;46699.47;6152282;23;20070;-75
2023/01/07 06:00:49;;;;;;;7.67;3.40;;;;;;;-145.18;100.00;46701.41;6152617;23;20025;-75
2023/01/07 06:03:14;;;;;;;7.60;3.70;;;;;;;-145.18;100.00;46705.31;6152547;23;20044;-75
2023/01/07 06:05:40;;;;;;;7.27;4.17;;;;;;;-145.18;100.00;46711.19;6152846;23;20097;-75
2023/01/07 06:08:05;;;;;;;6.83;3.83;;;;;;;-145.18;100.00;46713.13;6152315;23;20009;-76
2023/01/07 06:10:31;;;;;;;9.70;4.30;;;;;;;-145.18;100.00;46713.13;6152834;23;20010;-76
2023/01/07 06:12:56;;;;;;;9.83;4.00;;;;;;;-145.18;100.00;46705.31;6152430;23;20006;-76
2023/01/07 06:15:21;;;;;;;7.10;3.33;;;;;;;-145.18;100.00;46709.22;6152871;23;20076;-76
2023/01/07 06:17:47;;;;;;;7.97;2.97;;;;;;;-145.18;100.00;46705.31;6152144;23;20009;-76
2023/01/07 06:20:14;;;;;;;9.07;4.43;;;;;;;-145.18;100.00;46719.00;6152723;23;20375;-76
2023/01/07 06:22:42;;;;;;;5.87;3.27;;;;;;;-145.18;100.00;46719.00;6152692;23;20040;-76
2023/01/07 06:25:09;;;;;;;5.67;3.17;;;;;;;-145.18;100.00;46709.22;6152322;23;20228;-76
2023/01/07 06:27:34;;;;;;;7.57;3.40;;;;;;;-145.18;100.00;46707.28;6152264;23;20013;-76
2023/01/07 06:30:00;;;;;;;7.80;3.13;;;;;;;-145.18;100.00;46711.19;6152520;23;20519;-76
2023/01/07 06:32:25;;;;;;;5.67;3.17;;;;;;;-145.18;100.00;46711.19;6152564;23;20510;-76
2023/01/07 06:34:50;;;;;;;6.40;2.93;;;;;;;-145.18;100.00;46713.13;6126082;23;20319;-76
2023/01/07 06:37:16;;;;;;;6.40;3.00;;;;;;;-145.18;100.00;46715.09;6152323;23;20016;-77
2023/01/07 06:39:42;;;;;;;7.83;2.67;;;;;;;-145.18;100.00;46717.03;6152389;23;20021;-76
2023/01/07 06:42:08;;;;;;;8.83;2.70;;;;;;;-145.18;100.00;46719.00;6126303;23;20009;-76
2023/01/07 06:44:33;;;;;;;6.90;2.87;;;;;;;-145.18;100.00;46715.09;6151512;23;20011;-76
2023/01/07 06:46:59;;;;;;;7.07;3.00;;;;;;;-145.18;100.00;46719.00;6151708;23;20013;-76
2023/01/07 06:49:24;;;;;;;5.03;2.20;;;;;;;-145.18;100.00;46715.09;6152013;23;20016;-76
2023/01/07 06:51:49;;;;;;;3.90;2.27;;;;;;;-145.18;100.00;46720.94;6151798;23;20006;-76
2023/01/07 06:54:15;;;;;;;6.83;2.10;;;;;;;-145.18;100.00;46719.00;6150459;23;20394;-76
2023/01/07 06:56:40;;;;;;;5.90;1.80;;;;;;;-145.18;100.00;46719.00;6152498;23;20013;-76
2023/01/07 06:59:06;;;;;;;6.30;3.10;;;;;;;-145.18;100.00;46724.84;6151767;23;20443;-76
2023/01/07 07:01:31;;;;;;;5.87;2.30;;;;;;;-145.18;100.00;46724.84;6152730;23;20037;-76
2023/01/07 07:03:56;;;;;;;3.73;1.90;;;;;;;-145.18;100.00;46726.81;6151666;23;20382;-76
2023/01/07 07:06:22;;;;;;;4.50;2.17;;;;;;;-145.18;100.00;46728.75;6152118;23;20040;-76
2023/01/07 07:08:47;;;;;;;3.17;2.10;;;;;;;-145.18;100.00;46732.66;6151701;23;20443;-76
2023/01/07 07:11:12;;;;;;;4.67;1.87;;;;;;;-145.18;100.00;46724.84;6152399;23;20010;-77
2023/01/07 07:13:38;;;;;;;5.43;2.10;;;;;;;-145.18;100.00;46732.66;6151936;23;20001;-76
2023/01/07 07:16:03;;;;;;;4.90;1.93;;;;;;;-145.18;100.00;46728.75;6125433;23;20016;-76
2023/01/07 07:18:29;;;;;;;8.23;3.17;;;;;;;-145.18;100.00;46732.66;6151807;23;20388;-76
2023/01/07 07:20:54;;;;;;;4.00;2.03;;;;;;;-145.18;100.00;46724.84;6151769;23;20009;-76
2023/01/07 07:23:20;;;;;;;3.47;2.20;;;;;;;-145.18;100.00;46726.81;6151977;23;20080;-76
2023/01/07 07:25:45;;;;;;;3.50;2.20;;;;;;;-145.18;100.00;46728.75;6152527;23;20009;-76
2023/01/07 07:28:10;;;;;;;4.10;1.90;;;;;;;-145.18;100.00;46722.91;6151809;23;20148;-76
2023/01/07 07:30:36;;;;;;;3.50;1.90;;;;;;;-145.18;100.00;46734.63;6151941;23;20009;-76
2023/01/07 07:33:02;;;;;;;4.37;2.10;;;;;;;-145.18;100.00;46728.75;6150742;23;20017;-76
2023/01/07 07:35:28;;;;;;;3.27;1.70;;;;;;;-145.18;100.00;46728.75;6152034;23;20001;-76
2023/01/07 07:37:54;;;;;;;4.63;2.50;;;;;;;-145.18;100.00;46726.81;6125713;23;20255;-75
2023/01/07 07:40:19;;;;;;;4.20;1.90;;;;;;;-145.18;100.00;46724.84;6154072;23;20014;-76
2023/01/07 07:42:44;;;;;;;6.13;2.50;;;;;;;-145.18;100.00;46738.53;6152993;23;20013;-76
2023/01/07 07:45:10;;;;;;;6.57;2.30;;;;;;;-145.18;100.00;46734.63;6153620;23;20013;-76
2023/01/07 07:47:35;;;;;;;2.83;1.80;;;;;;;-145.18;100.00;46734.63;6154424;23;20464;-75
2023/01/07 07:50:01;;;;;;;8.20;2.90;;;;;;;-145.18;100.00;46732.66;6153849;23;20017;-76
2023/01/07 07:52:26;;;;;;;3.10;1.80;;;;;;;-145.18;100.00;46730.72;6154050;23;20021;-76
2023/01/07 07:54:52;;;;;;;3.83;2.03;;;;;;;-145.18;100.00;46734.63;6153385;23;20116;-76
2023/01/07 07:57:17;;;;;;;2.40;1.67;;;;;;;-145.18;100.00;46734.63;6154140;23;20020;-76
2023/01/07 07:59:42;;;;;;;3.67;2.00;;;;;;;-145.18;100.00;46728.75;6153943;23;20010;-76
2023/01/07 08:02:12;;;;;;;3.97;1.77;;;;;;;-145.18;100.00;46736.56;6153234;23;20093;-76
2023/01/07 08:04:38;;;;;;;3.33;1.63;;;;;;;-145.18;100.00;46732.66;6154391;23;20446;-76
2023/01/07 08:07:03;;;;;;;2.93;1.67;;;;;;;-145.18;100.00;46732.66;6153614;23;20232;-76
2023/01/07 08:09:29;;;;;;;3.73;1.87;;;;;;;-145.18;100.00;46728.75;6153887;23;20010;-76
2023/01/07 08:11:54;;;;;;;3.77;2.00;;;;;;;-145.18;100.00;46728.75;6153950;23;20395;-76
2023/01/07 08:14:20;;;;;;;6.93;1.97;;;;;;;-145.18;100.00;46726.81;6153388;23;20539;-76
2023/01/07 08:16:45;;;;;;;6.17;1.80;;;;;;;-145.18;100.00;46726.81;6153939;23;20017;-76
2023/01/07 08:19:11;;;;;;;4.10;2.10;;;;;;;-145.18;100.00;46734.63;6153209;23;20536;-76
2023/01/07 08:21:37;;;;;;;2.77;1.47;;;;;;;-145.18;100.00;46734.63;6154190;23;20451;-76
2023/01/07 08:24:02;;;;;;;7.90;1.80;;;;;;;-145.18;100.00;46728.75;6153314;23;20010;-77
2023/01/07 08:26:28;;;;;;;4.47;1.93;;;;;;;-145.18;100.00;46734.63;6151693;23;20010;-76
2023/01/07 08:28:53;;;;;;;4.77;1.87;;;;;;;-145.18;100.00;46732.66;6151077;23;20006;-76
2023/01/07 08:31:18;;;;;;;3.03;1.60;;;;;;;-145.18;100.00;46728.75;6153448;23;20335;-76
2023/01/07 08:33:44;;;;;;;4.57;1.60;;;;;;;-145.18;100.00;46720.94;6153052;23;20384;-76
2023/01/07 08:36:09;;;;;;;2.87;1.40;;;;;;;-145.18;100.00;46726.81;6152588;23;20084;-76
2023/01/07 08:38:35;;;;;;;3.10;1.40;;;;;;;-145.18;100.00;46724.84;6127074;23;20014;-76
2023/01/07 08:41:01;;;;;;;2.50;1.63;;;;;;;-145.18;100.00;46709.22;6153426;23;20012;-76
2023/01/07 08:43:26;;;;;;;2.13;1.40;;;;;;;-145.18;100.00;46711.19;6152304;23;20006;-76
2023/01/07 08:45:52;;;;;;;4.47;1.20;;;;;;;-145.18;100.00;46699.47;6153294;23;20017;-76
2023/01/07 08:48:18;;;;;;;4.33;1.53;;;;;;;-145.18;100.00;46697.50;6152976;23;20028;-76
2023/01/07 08:50:48;;;;;;;2.13;1.30;;;;;;;-145.18;100.00;46693.59;6153544;23;20005;-76
2023/01/07 08:53:13;;;;;;;2.40;1.50;;;;;;;-145.18;100.00;46683.84;6152712;23;20286;-76
2023/01/07 08:55:39;;;;;;;4.53;2.07;;;;;;;-145.18;100.00;46670.16;6153469;23;20018;-75
2023/01/07 08:58:04;;;;;;;2.57;1.50;;;;;;;-145.18;100.00;46664.31;6153123;23;20013;-76
2023/01/07 09:00:30;;;;;;;3.67;2.03;;;;;;;-145.18;100.00;46652.59;6153261;23;20014;-75
2023/01/07 09:02:55;;;;;;;3.30;1.57;;;;;;;-145.18;100.00;46660.41;6151884;23;20024;-75
2023/01/07 09:05:21;;;;;;;6.20;1.63;;;;;;;-145.18;100.00;46660.41;6127055;23;20005;-76
2023/01/07 09:07:50;;;;;;;3.60;1.10;;;;;;;-145.18;100.00;46660.41;6152146;23;20094;-75
2023/01/07 09:10:16;;;;;;;3.03;1.27;;;;;;;-145.18;100.00;46660.41;6125651;23;20005;-76
2023/01/07 09:12:41;;;;;;;3.37;1.27;;;;;;;-145.18;100.00;46658.44;6127516;23;20251;-76
2023/01/07 09:15:07;;;;;;;1.37;1.07;;;;;;;-145.18;100.00;46658.44;6148065;23;20503;-76
2023/01/07 09:17:32;;;;;;;2.30;1.00;;;;;;;-145.18;100.00;46660.41;6122977;23;20013;-77
2023/01/07 09:20:02;;;;;;;2.17;0.93;;;;;;;-145.18;100.00;46660.41;6152354;23;20032;-78
2023/01/07 09:22:27;;;;;;;3.60;1.30;;;;;;;-145.18;100.00;46635.00;6153029;23;20446;-77
2023/01/07 09:24:52;;;;;;;2.70;1.03;;;;;;;-145.18;100.00;46648.69;6151963;23;20044;-77
2023/01/07 09:27:18;;;;;;;1.33;0.90;;;;;;;-145.18;100.00;46648.69;6153087;23;20347;-78
2023/01/07 09:29:43;;;;;;;2.50;1.00;;;;;;;-145.18;100.00;46642.81;6152410;23;20102;-78
2023/01/07 09:32:09;;;;;;;2.13;0.97;;;;;;;-145.18;100.00;46646.72;6152958;23;20009;-77
2023/01/07 09:34:34;;;;;;;1.93;0.90;;;;;;;-145.18;100.00;46662.34;6153132;23;20009;-77
2023/01/07 09:37:00;;;;;;;2.33;1.20;;;;;;;-145.18;100.00;46650.63;6153033;23;20013;-77
2023/01/07 09:39:25;;;;;;;2.80;1.03;;;;;;;-145.18;100.00;46644.78;6126633;23;20014;-77
2023/01/07 09:42:12;;;;;;;2.73;0.80;;;;;;;-145.18;100.00;46648.69;6149971;23;20017;-77
2023/01/07 09:44:46;;;;;;;;;;;;;;;-145.18;100.00;46646.72;6153290;23;20006;-77
2023/01/07 09:47:16;;;;;;;4.60;1.57;;;;;;;-145.18;100.00;46642.81;6152854;23;19916;-77
2023/01/07 09:49:46;;;;;;;1.97;1.40;;;;;;;-145.18;100.00;46640.88;6152395;23;20009;-77
2023/01/07 09:52:17;;;;;;;3.27;1.60;;;;;;;-145.18;100.00;46648.69;6126455;23;20354;-78
2023/01/07 09:54:47;;;;;;;3.33;2.03;;;;;;;-145.18;100.00;46648.69;6152557;23;20071;-78
2023/01/07 09:57:16;;;;;;;4.17;1.50;;;;;;;-145.18;100.00;46648.69;6150251;23;20454;-78
2023/01/07 09:59:41;;;;;;;1.90;1.40;;;;;;;-145.18;100.00;46638.91;6152921;23;20006;-77
2023/01/07 10:02:31;;;;;;;2.40;1.47;;;;;;;-145.18;100.00;46652.59;6125964;23;20013;-78
2023/01/07 10:05:23;;;;;;;2.13;1.33;;;;;;;-145.18;100.00;46642.81;6152503;23;20017;-78
2023/01/07 10:07:59;;;;;;;3.03;1.37;;;;;;;-145.18;100.00;46650.63;6141417;23;20020;-78
2023/01/07 10:10:44;;;;;;;4.80;1.40;;;;;;;-145.18;100.00;46650.63;6147545;23;20009;-78
2023/01/07 10:13:25;;;;;;;4.17;1.53;;;;;;;-145.18;100.00;46658.44;6150645;23;20012;-78
2023/01/07 10:16:15;;;;;;;2.77;2.13;;;;;;;-145.18;100.00;46658.44;6152507;23;20053;-78
2023/01/07 10:18:55;;;;;;;3.73;1.33;;;;;;;-145.18;100.00;46668.22;6152836;23;20010;-78
2023/01/07 10:21:44;;;;;;;2.87;1.30;;;;;;;-145.18;100.00;46660.41;6152894;23;20002;-78
2023/01/07 10:24:31;;;;;;;2.70;1.57;;;;;;;-145.18;100.00;46679.94;6151101;23;20005;-78
2023/01/07 10:27:13;;;;;;;1.80;1.20;;;;;;;-145.18;100.00;46697.50;6151394;23;20028;-78
2023/01/07 10:29:50;;;;;;;1.63;1.10;;;;;;;-145.18;100.00;46677.97;6152071;23;20092;-79
2023/01/07 10:32:19;;;;;;;2.40;1.20;;;;;;;-145.18;100.00;46701.41;6126098;23;20335;-80
2023/01/07 10:34:47;;;;;;;3.27;1.60;;;;;;;-145.18;100.00;46703.38;6151998;23;20494;-79
2023/01/07 10:37:32;;;;;;;2.33;1.20;;;;;;;-145.18;100.00;46699.47;6152516;23;20020;-79
2023/01/07 10:40:10;;;;;;;2.97;1.20;;;;;;;-145.18;100.00;46713.13;6151258;23;20008;-79
2023/01/07 10:42:41;;;;;;;2.30;1.13;;;;;;;-145.18;100.00;46724.84;6153276;23;20076;-79
2023/01/07 10:46:00;;;;;;;2.43;1.00;;;;;;;-145.18;100.00;46754.16;6152005;23;20096;-79
2023/01/07 10:48:44;;;;;;;1.90;1.10;;;;;;;-145.18;100.00;46760.00;6033459;23;20418;-79
2023/01/07 10:51:16;;;;;;;2.00;1.00;;;;;;;-145.18;100.00;46771.75;6152519;23;20009;-79
2023/01/07 10:54:19;;;;;;;3.07;1.20;;;;;;;-145.18;100.00;46777.59;6152204;23;20016;-79
2023/01/07 10:56:53;;;;;;;2.93;1.13;;;;;;;-145.18;100.00;46785.41;6152334;23;20005;-79
2023/01/07 10:59:21;;;;;;;6.93;1.10;;;;;;;-145.18;100.00;46795.19;6152557;23;20001;-79
2023/01/07 11:01:53;;;;;;;2.07;1.20;;;;;;;-145.18;100.00;46828.38;6152215;23;20035;-79
2023/01/07 11:04:19;;;;;;;2.50;1.00;;;;;;;-145.18;100.00;46824.47;6151975;23;20021;-79
2023/01/07 11:06:51;;;;;;;1.33;0.93;;;;;;;-145.18;100.00;46826.44;6152689;23;20092;-79
2023/01/07 11:09:24;;;;;;;1.77;1.00;;;;;;;-145.18;100.00;46834.25;6152249;23;20009;-80
2023/01/07 11:11:51;;;;;;;3.20;0.90;;;;;;;-145.18;100.00;46844.00;6152259;23;20081;-79
2023/01/07 11:14:24;;;;;;;0.90;0.80;;;;;;;-145.18;100.00;46855.72;6151571;23;20085;-79
2023/01/07 11:16:54;;;;;;;2.20;0.93;;;;;;;-145.18;100.00;46863.53;6148983;23;20233;-79
2023/01/07 11:19:20;;;;;;;1.60;1.20;;;;;;;-145.18;100.00;46894.81;6150987;23;20013;-79
2023/01/07 11:21:51;;;;;;;1.30;1.10;;;;;;;-145.18;100.00;46885.03;6151834;23;20013;-78